createdAt,value
2023-05-21T00:01:10.608Z,47.09
2023-05-21T00:03:41.928Z,46.83
2023-05-21T00:06:09.399Z,47.00
2023-05-21T00:08:36.611Z,46.99
2023-05-21T00:11:03.891Z,47.17
2023-05-21T00:13:31.089Z,46.87
2023-05-21T00:15:58.410Z,46.83
2023-05-21T00:18:25.726Z,46.85
2023-05-21T00:20:53.105Z,46.85
2023-05-21T00:23:21.481Z,46.73
2023-05-21T00:25:50.422Z,46.54
2023-05-21T00:28:17.646Z,46.48
2023-05-21T00:30:45.771Z,46.61
2023-05-21T00:33:13.954Z,46.55
2023-05-21T00:35:41.321Z,46.55
2023-05-21T00:38:08.733Z,46.53
2023-05-21T00:40:36.629Z,46.31
2023-05-21T00:43:03.893Z,46.48
2023-05-21T00:45:31.143Z,46.46
2023-05-21T00:47:58.654Z,46.38
2023-05-21T00:50:26.086Z,46.05
2023-05-21T00:52:53.422Z,46.09
2023-05-21T00:55:20.855Z,46.26
2023-05-21T00:57:49.453Z,46.31
2023-05-21T01:00:16.836Z,46.19
2023-05-21T01:02:45.824Z,46.02
2023-05-21T01:05:13.305Z,46.01
2023-05-21T01:07:41.873Z,46.14
2023-05-21T01:10:10.545Z,45.90
2023-05-21T01:12:39.544Z,46.14
2023-05-21T01:15:06.964Z,46.15
2023-05-21T01:17:34.497Z,45.90
2023-05-21T01:20:08.016Z,46.07
2023-05-21T01:22:47.507Z,45.77
2023-05-21T01:25:15.053Z,46.06
2023-05-21T01:27:42.327Z,45.89
2023-05-21T01:30:09.892Z,45.95
2023-05-21T01:32:50.715Z,45.79
2023-05-21T01:35:23.181Z,45.87
2023-05-21T01:38:04.633Z,45.69
2023-05-21T01:40:54.281Z,45.73
2023-05-21T01:43:23.739Z,45.90
2023-05-21T01:45:54.702Z,45.91
2023-05-21T01:48:27.364Z,45.80
2023-05-21T01:50:55.961Z,45.72
2023-05-21T01:53:23.210Z,45.59
2023-05-21T01:55:50.447Z,45.52
2023-05-21T01:58:18.464Z,45.80
2023-05-21T02:00:46.603Z,45.67
2023-05-21T02:03:17.368Z,45.82
2023-05-21T02:05:45.027Z,45.24
2023-05-21T02:08:12.900Z,45.38
2023-05-21T02:10:40.281Z,45.38
2023-05-21T02:13:07.653Z,45.60
2023-05-21T02:15:35.451Z,45.37
2023-05-21T02:18:03.468Z,45.44
2023-05-21T02:20:31.383Z,45.34
2023-05-21T02:22:58.626Z,45.56
2023-05-21T02:25:25.892Z,45.35
2023-05-21T02:27:53.965Z,45.47
2023-05-21T02:30:21.393Z,45.52
2023-05-21T02:32:48.954Z,45.29
2023-05-21T02:35:16.323Z,45.37
2023-05-21T02:37:46.748Z,45.33
2023-05-21T02:40:14.159Z,45.20
2023-05-21T02:42:41.670Z,45.30
2023-05-21T02:45:10.974Z,45.17
2023-05-21T02:47:38.640Z,45.31
2023-05-21T02:50:07.812Z,45.21
2023-05-21T02:52:35.476Z,45.37
2023-05-21T02:55:02.788Z,45.04
2023-05-21T02:57:30.045Z,45.39
2023-05-21T02:59:57.256Z,45.12
2023-05-21T03:02:24.673Z,45.17
2023-05-21T03:04:52.043Z,45.07
2023-05-21T03:07:20.331Z,45.09
2023-05-21T03:09:47.541Z,45.17
2023-05-21T03:12:14.794Z,45.07
2023-05-21T03:14:46.279Z,45.42
2023-05-21T03:17:17.122Z,45.06
2023-05-21T03:19:44.810Z,45.01
2023-05-21T03:22:12.089Z,45.19
2023-05-21T03:24:39.832Z,45.13
2023-05-21T03:27:07.514Z,44.95
2023-05-21T03:29:35.205Z,44.87
2023-05-21T03:32:02.831Z,44.91
2023-05-21T03:34:30.223Z,44.91
2023-05-21T03:36:57.478Z,44.76
2023-05-21T03:39:24.686Z,45.06
2023-05-21T03:41:52.144Z,45.10
2023-05-21T03:44:19.355Z,44.92
2023-05-21T03:46:46.625Z,45.02
2023-05-21T03:49:15.260Z,44.93
2023-05-21T03:51:42.516Z,44.86
2023-05-21T03:54:09.738Z,44.91
2023-05-21T03:56:36.949Z,44.90
2023-05-21T03:59:04.224Z,45.11
2023-05-21T04:01:33.013Z,45.13
2023-05-21T04:04:00.503Z,44.72
2023-05-21T04:06:28.122Z,44.99
2023-05-21T04:08:55.426Z,44.75
2023-05-21T04:11:22.720Z,44.90
2023-05-21T04:13:51.640Z,44.93
2023-05-21T04:16:19.495Z,44.73
2023-05-21T04:18:47.533Z,44.93
2023-05-21T04:21:14.838Z,45.05
2023-05-21T04:23:42.204Z,44.96
2023-05-21T04:26:09.411Z,44.88
2023-05-21T04:28:36.892Z,44.75
2023-05-21T04:31:05.729Z,44.88
2023-05-21T04:33:32.996Z,44.76
2023-05-21T04:36:00.268Z,44.88
2023-05-21T04:38:27.482Z,44.82
2023-05-21T04:40:55.683Z,44.79
2023-05-21T04:43:26.547Z,45.07
2023-05-21T04:45:56.974Z,44.73
2023-05-21T04:48:27.493Z,44.61
2023-05-21T04:50:56.023Z,44.54
2023-05-21T04:53:23.841Z,44.54
2023-05-21T04:55:51.152Z,44.71
2023-05-21T04:58:19.157Z,44.33
2023-05-21T05:00:46.942Z,44.64
2023-05-21T05:03:14.692Z,44.42
2023-05-21T05:05:42.139Z,44.66
2023-05-21T05:08:09.366Z,44.49
2023-05-21T05:10:36.783Z,44.45
2023-05-21T05:13:04.075Z,44.41
2023-05-21T05:15:31.277Z,44.58
2023-05-21T05:17:58.524Z,44.56
2023-05-21T05:20:25.931Z,44.31
2023-05-21T05:22:53.179Z,44.48
2023-05-21T05:25:21.127Z,44.57
2023-05-21T05:27:48.381Z,44.49
2023-05-21T05:30:15.642Z,44.60
2023-05-21T05:32:42.880Z,44.32
2023-05-21T05:35:10.775Z,44.31
2023-05-21T05:37:38.025Z,44.38
2023-05-21T05:40:06.196Z,44.25
2023-05-21T05:42:33.501Z,44.40
2023-05-21T05:45:00.876Z,44.36
2023-05-21T05:47:28.117Z,44.29
2023-05-21T05:49:55.380Z,44.37
2023-05-21T05:52:22.623Z,44.19
2023-05-21T05:54:49.865Z,44.39
2023-05-21T05:57:17.146Z,44.24
2023-05-21T05:59:44.364Z,44.39
2023-05-21T06:02:11.724Z,44.39
2023-05-21T06:04:38.951Z,44.36
2023-05-21T06:07:06.522Z,44.01
2023-05-21T06:09:33.773Z,44.19
2023-05-21T06:12:01.295Z,44.24
2023-05-21T06:14:28.501Z,44.27
2023-05-21T06:16:55.702Z,44.40
2023-05-21T06:19:22.973Z,44.44
2023-05-21T06:21:50.678Z,44.43
2023-05-21T06:24:17.906Z,44.20
2023-05-21T06:26:45.148Z,44.15
2023-05-21T06:29:13.632Z,44.47
2023-05-21T06:31:42.707Z,44.18
2023-05-21T06:34:11.708Z,44.13
2023-05-21T06:36:39.030Z,44.42
2023-05-21T06:39:06.295Z,44.07
2023-05-21T06:41:33.564Z,44.45
2023-05-21T06:44:00.770Z,44.02
2023-05-21T06:46:28.132Z,44.05
2023-05-21T06:48:55.856Z,43.91
2023-05-21T06:51:23.139Z,43.82
2023-05-21T06:53:50.966Z,44.20
2023-05-21T06:56:18.190Z,43.64
2023-05-21T06:58:45.534Z,43.57
2023-05-21T07:01:12.967Z,43.89
2023-05-21T07:03:40.354Z,43.84
2023-05-21T07:06:07.669Z,43.68
2023-05-21T07:08:34.990Z,43.65
2023-05-21T07:11:02.587Z,43.67
2023-05-21T07:13:30.414Z,43.66
2023-05-21T07:15:57.860Z,43.77
2023-05-21T07:18:25.114Z,43.58
2023-05-21T07:20:54.637Z,43.69
2023-05-21T07:23:22.143Z,43.68
2023-05-21T07:25:49.534Z,43.60
2023-05-21T07:28:16.817Z,43.96
2023-05-21T07:30:44.209Z,44.03
2023-05-21T07:33:12.559Z,43.94
2023-05-21T07:35:39.972Z,44.02
2023-05-21T07:38:07.238Z,43.94
2023-05-21T07:40:34.436Z,43.68
2023-05-21T07:43:01.697Z,43.84
2023-05-21T07:45:32.090Z,43.79
2023-05-21T07:47:59.360Z,43.90
2023-05-21T07:50:26.765Z,43.91
2023-05-21T07:52:54.047Z,44.15
2023-05-21T07:55:21.689Z,43.85
2023-05-21T07:57:49.509Z,43.77
2023-05-21T08:00:16.827Z,43.79
2023-05-21T08:02:44.380Z,43.99
2023-05-21T08:05:12.019Z,44.06
2023-05-21T08:07:39.294Z,44.12
2023-05-21T08:10:07.076Z,43.67
2023-05-21T08:12:34.363Z,44.14
2023-05-21T08:15:01.553Z,43.84
2023-05-21T08:17:28.913Z,43.97
2023-05-21T08:19:56.591Z,44.02
2023-05-21T08:22:23.809Z,44.03
2023-05-21T08:24:51.071Z,44.19
2023-05-21T08:27:18.302Z,44.07
2023-05-21T08:29:45.808Z,44.06
2023-05-21T08:32:13.118Z,43.76
2023-05-21T08:34:40.342Z,43.85
2023-05-21T08:37:07.567Z,43.87
2023-05-21T08:39:34.877Z,43.78
2023-05-21T08:42:40.643Z,44.11
2023-05-21T08:45:08.551Z,44.00
2023-05-21T08:47:37.159Z,44.07
2023-05-21T08:50:15.478Z,43.79
2023-05-21T08:52:42.837Z,43.84
2023-05-21T08:55:10.738Z,44.08
2023-05-21T08:57:38.334Z,43.76
2023-05-21T09:00:09.968Z,43.87
2023-05-21T09:02:40.897Z,43.98
2023-05-21T09:05:09.969Z,44.09
2023-05-21T09:07:39.794Z,43.98
2023-05-21T09:10:13.471Z,44.00
2023-05-21T09:12:40.910Z,43.81
2023-05-21T09:15:08.598Z,44.07
2023-05-21T09:17:36.218Z,44.06
2023-05-21T09:20:17.369Z,44.05
2023-05-21T09:22:46.622Z,44.13
2023-05-21T09:25:22.034Z,43.79
2023-05-21T09:27:49.325Z,43.73
2023-05-21T09:30:18.155Z,43.73
2023-05-21T09:32:46.685Z,44.04
2023-05-21T09:35:15.017Z,44.14
2023-05-21T09:37:47.580Z,43.96
2023-05-21T09:40:22.067Z,43.59
2023-05-21T09:42:50.796Z,44.10
2023-05-21T09:45:22.307Z,44.02
2023-05-21T09:47:50.604Z,44.00
2023-05-21T09:50:27.003Z,44.03
2023-05-21T09:52:55.489Z,44.30
2023-05-21T09:55:24.722Z,46.33
2023-05-21T09:57:52.848Z,47.49
2023-05-21T10:00:24.800Z,48.30
2023-05-21T10:02:56.158Z,49.18
2023-05-21T10:05:27.752Z,49.83
2023-05-21T10:08:01.908Z,49.45
2023-05-21T10:10:31.035Z,50.46
2023-05-21T10:13:09.930Z,51.49
2023-05-21T10:15:47.397Z,50.79
2023-05-21T10:18:17.234Z,51.71
2023-05-21T10:20:45.038Z,50.67
2023-05-21T10:23:13.145Z,50.41
2023-05-21T10:25:41.168Z,50.71
2023-05-21T10:28:08.422Z,50.07
2023-05-21T10:30:37.162Z,49.79
2023-05-21T10:33:05.366Z,49.95
2023-05-21T10:35:34.430Z,50.70
2023-05-21T10:38:04.046Z,50.17
2023-05-21T10:40:33.634Z,50.49
2023-05-21T10:43:28.698Z,50.24
2023-05-21T10:46:33.559Z,50.22
2023-05-21T10:49:34.790Z,49.90
2023-05-21T10:52:51.394Z,49.75
2023-05-21T10:55:29.685Z,50.47
2023-05-21T10:58:14.462Z,50.21
2023-05-21T11:00:43.611Z,50.42
2023-05-21T11:03:13.275Z,50.97
2023-05-21T11:05:54.093Z,51.34
2023-05-21T11:08:35.613Z,51.78
2023-05-21T11:11:03.763Z,51.43
2023-05-21T11:17:38.860Z,50.52
2023-05-21T11:20:10.787Z,50.56
2023-05-21T11:22:38.793Z,50.23
2023-05-21T11:25:06.610Z,50.62
2023-05-21T11:27:41.241Z,50.35
2023-05-21T11:30:10.334Z,50.63
2023-05-21T11:32:39.907Z,51.03
2023-05-21T11:35:08.157Z,50.55
2023-05-21T11:37:40.782Z,50.68
2023-05-21T11:40:37.248Z,51.17
2023-05-21T11:43:04.824Z,51.72
2023-05-21T11:45:33.224Z,50.92
2023-05-21T11:48:01.156Z,51.15
2023-05-21T11:50:30.837Z,51.38
2023-05-21T11:52:59.868Z,51.90
2023-05-21T11:55:27.865Z,51.63
2023-05-21T11:57:55.649Z,51.67
2023-05-21T12:00:23.305Z,51.80
2023-05-21T12:02:55.932Z,52.01
2023-05-21T12:05:24.518Z,52.11
2023-05-21T12:07:52.533Z,52.49
2023-05-21T12:10:24.257Z,52.52
2023-05-21T12:12:55.415Z,53.46
2023-05-21T12:15:25.784Z,53.59
2023-05-21T12:17:53.458Z,54.08
2023-05-21T12:20:21.093Z,54.02
2023-05-21T12:22:52.333Z,53.64
2023-05-21T12:25:21.000Z,52.86
2023-05-21T12:27:49.677Z,53.01
2023-05-21T12:30:17.181Z,52.24
2023-05-21T12:32:44.549Z,52.29
2023-05-21T12:35:22.368Z,52.09
2023-05-21T12:37:51.034Z,52.15
2023-05-21T12:40:19.094Z,52.46
2023-05-21T12:42:46.424Z,52.58
2023-05-21T12:45:14.161Z,52.14
2023-05-21T12:47:44.450Z,52.11
2023-05-21T12:50:13.787Z,51.74
2023-05-21T12:52:43.011Z,51.46
2023-05-21T12:55:12.556Z,51.90
2023-05-21T12:57:39.810Z,51.71
2023-05-21T13:00:12.638Z,51.70
2023-05-21T13:02:41.654Z,51.62
2023-05-21T13:05:11.530Z,51.48
2023-05-21T13:07:40.962Z,51.30
2023-05-21T13:10:09.109Z,51.08
2023-05-21T13:12:36.721Z,51.06
2023-05-21T13:15:05.417Z,50.74
2023-05-21T13:17:32.713Z,51.22
2023-05-21T13:20:20.400Z,50.96
2023-05-21T13:22:49.257Z,50.82
2023-05-21T13:25:20.004Z,50.82
2023-05-21T13:27:48.330Z,51.54
2023-05-21T13:30:15.934Z,51.60
2023-05-21T13:32:43.828Z,51.88
2023-05-21T13:35:12.102Z,52.54
2023-05-21T13:37:40.545Z,52.73
2023-05-21T13:40:14.483Z,52.40
2023-05-21T13:42:45.546Z,52.58
2023-05-21T13:45:14.113Z,52.72
2023-05-21T13:47:42.132Z,52.88
2023-05-21T13:50:10.350Z,53.37
2023-05-21T13:52:38.277Z,53.14
2023-05-21T13:55:06.435Z,53.45
2023-05-21T13:57:34.076Z,53.75
2023-05-21T14:00:01.734Z,53.18
2023-05-21T14:02:29.460Z,53.39
2023-05-21T14:04:56.877Z,53.06
2023-05-21T14:07:24.132Z,52.74
2023-05-21T14:09:52.394Z,53.15
2023-05-21T14:12:19.782Z,52.93
2023-05-21T14:14:49.705Z,53.33
2023-05-21T14:17:17.376Z,52.82
2023-05-21T14:19:44.861Z,53.14
2023-05-21T14:22:12.092Z,53.36
2023-05-21T14:24:39.457Z,53.68
2023-05-21T14:27:06.906Z,53.56
2023-05-21T14:29:34.357Z,54.41
2023-05-21T14:32:01.947Z,55.01
2023-05-21T14:34:29.320Z,57.13
2023-05-21T14:36:56.651Z,56.58
2023-05-21T14:39:24.200Z,55.51
2023-05-21T14:41:51.866Z,54.71
2023-05-21T14:44:20.020Z,54.42
2023-05-21T14:46:47.228Z,54.36
2023-05-21T14:49:14.628Z,53.74
2023-05-21T14:51:43.577Z,54.01
2023-05-21T14:54:10.821Z,53.56
2023-05-21T14:56:38.290Z,53.01
2023-05-21T14:59:05.534Z,52.74
2023-05-21T15:01:33.189Z,53.10
2023-05-21T15:04:02.705Z,53.21
2023-05-21T15:06:30.497Z,52.79
2023-05-21T15:08:57.707Z,52.54
2023-05-21T15:11:25.618Z,52.79
2023-05-21T15:13:55.387Z,52.86
2023-05-21T15:16:29.881Z,52.41
2023-05-21T15:18:57.168Z,52.04
2023-05-21T15:21:26.483Z,52.56
2023-05-21T15:23:55.158Z,52.05
2023-05-21T15:26:22.767Z,52.25
2023-05-21T15:28:50.055Z,51.93
2023-05-21T15:31:17.396Z,52.14
2023-05-21T15:33:44.911Z,52.47
2023-05-21T15:36:12.165Z,52.21
2023-05-21T15:38:39.411Z,51.95
2023-05-21T15:41:07.256Z,52.39
2023-05-21T15:43:34.667Z,52.43
2023-05-21T15:46:01.925Z,52.29
2023-05-21T15:48:29.176Z,51.87
2023-05-21T15:50:56.419Z,52.32
2023-05-21T15:53:23.693Z,52.16
2023-05-21T15:55:50.937Z,52.10
2023-05-21T15:58:18.291Z,51.53
2023-05-21T16:00:45.739Z,51.71
2023-05-21T16:03:13.453Z,51.57
2023-05-21T16:05:40.942Z,51.68
2023-05-21T16:08:10.817Z,51.85
2023-05-21T16:10:39.968Z,51.75
2023-05-21T16:13:09.577Z,51.93
2023-05-21T16:15:37.184Z,52.03
2023-05-21T16:18:05.189Z,52.72
2023-05-21T16:20:33.364Z,51.93
2023-05-21T16:23:00.877Z,52.29
2023-05-21T16:25:28.282Z,52.81
2023-05-21T16:27:55.762Z,52.62
2023-05-21T16:30:23.829Z,52.65
2023-05-21T16:32:51.383Z,52.64
2023-05-21T16:35:18.782Z,52.56
2023-05-21T16:37:46.291Z,52.65
2023-05-21T16:40:29.689Z,52.26
2023-05-21T16:42:57.030Z,51.93
2023-05-21T16:45:24.309Z,52.03
2023-05-21T16:47:52.268Z,51.98
2023-05-21T16:50:20.262Z,51.84
2023-05-21T16:52:47.592Z,52.01
2023-05-21T16:55:15.289Z,51.89
2023-05-21T16:57:42.515Z,51.74
2023-05-21T17:00:12.991Z,52.06
2023-05-21T17:02:40.389Z,51.90
2023-05-21T17:05:08.105Z,51.59
2023-05-21T17:07:35.430Z,51.86
2023-05-21T17:10:04.963Z,51.25
2023-05-21T17:12:32.656Z,51.86
2023-05-21T17:15:00.303Z,52.01
2023-05-21T17:17:27.908Z,51.82
2023-05-21T17:19:55.461Z,52.39
2023-05-21T17:22:22.891Z,52.50
2023-05-21T17:24:50.558Z,52.46
2023-05-21T17:27:17.843Z,52.50
2023-05-21T17:29:45.082Z,52.30
2023-05-21T17:32:12.396Z,52.11
2023-05-21T17:34:39.728Z,52.13
2023-05-21T17:37:07.108Z,51.95
2023-05-21T17:39:34.366Z,52.17
2023-05-21T17:42:01.792Z,51.98
2023-05-21T17:44:29.074Z,51.76
2023-05-21T17:46:56.628Z,52.36
2023-05-21T17:49:24.029Z,52.50
2023-05-21T17:51:51.529Z,52.04
2023-05-21T17:54:19.680Z,52.36
2023-05-21T17:56:46.874Z,52.01
2023-05-21T17:59:14.708Z,52.03
2023-05-21T18:01:41.960Z,52.98
2023-05-21T18:04:10.823Z,52.49
2023-05-21T18:06:38.669Z,52.67
2023-05-21T18:09:07.754Z,52.51
2023-05-21T18:11:35.492Z,52.51
2023-05-21T18:14:04.005Z,52.26
2023-05-21T18:16:31.685Z,52.36
2023-05-21T18:19:02.120Z,52.26
2023-05-21T18:21:29.408Z,52.46
2023-05-21T18:23:56.830Z,52.71
2023-05-21T18:26:24.639Z,53.00
2023-05-21T18:28:52.060Z,53.30
2023-05-21T18:31:19.410Z,53.06
2023-05-21T18:33:46.697Z,53.27
2023-05-21T18:36:14.116Z,53.86
2023-05-21T18:38:41.546Z,53.45
2023-05-21T18:41:08.864Z,53.55
2023-05-21T18:43:36.354Z,53.15
2023-05-21T18:46:03.678Z,53.04
2023-05-21T18:48:30.999Z,52.08
2023-05-21T18:50:58.523Z,51.63
2023-05-21T18:53:25.741Z,51.51
2023-05-21T18:55:52.965Z,51.06
2023-05-21T18:58:20.364Z,51.17
2023-05-21T19:00:47.674Z,51.13
2023-05-21T19:03:16.236Z,50.57
2023-05-21T19:05:43.607Z,50.87
2023-05-21T19:08:11.035Z,50.51
2023-05-21T19:10:39.295Z,50.77
2023-05-21T19:13:06.874Z,50.47
2023-05-21T19:15:34.136Z,50.10
2023-05-21T19:18:02.582Z,50.40
2023-05-21T19:20:29.887Z,50.16
2023-05-21T19:22:57.393Z,50.02
2023-05-21T19:25:24.705Z,50.18
2023-05-21T19:27:52.856Z,49.87
2023-05-21T19:30:20.396Z,50.09
2023-05-21T19:32:48.025Z,49.49
2023-05-21T19:35:16.503Z,49.64
2023-05-21T19:37:43.729Z,50.21
2023-05-21T19:40:11.599Z,49.61
2023-05-21T19:42:39.353Z,49.57
2023-05-21T19:45:09.449Z,49.56
2023-05-21T19:47:36.814Z,49.67
2023-05-21T19:50:04.775Z,49.76
2023-05-21T19:52:32.077Z,49.77
2023-05-21T19:55:04.668Z,49.61
2023-05-21T19:57:32.782Z,49.86
2023-05-21T20:00:00.117Z,49.51
2023-05-21T20:02:28.756Z,49.11
2023-05-21T20:04:57.839Z,49.37
2023-05-21T20:07:25.608Z,49.33
2023-05-21T20:09:52.899Z,49.63
2023-05-21T20:12:20.438Z,50.10
2023-05-21T20:14:50.452Z,50.17
2023-05-21T20:17:20.827Z,50.21
2023-05-21T20:19:48.746Z,49.93
2023-05-21T20:22:19.758Z,49.77
2023-05-21T20:24:47.282Z,50.27
2023-05-21T20:27:19.699Z,49.99
2023-05-21T20:29:47.297Z,50.03
2023-05-21T20:32:14.669Z,50.11
2023-05-21T20:34:54.341Z,49.69
2023-05-21T20:37:32.248Z,49.63
2023-05-21T20:39:59.828Z,49.72
2023-05-21T20:42:31.180Z,49.76
2023-05-21T20:44:59.125Z,49.49
2023-05-21T20:47:29.909Z,49.21
2023-05-21T20:49:58.733Z,49.06
2023-05-21T20:52:26.823Z,49.36
2023-05-21T20:54:54.794Z,49.29
2023-05-21T20:57:22.639Z,49.16
2023-05-21T20:59:51.473Z,49.41
2023-05-21T21:02:19.679Z,49.09
2023-05-21T21:04:50.651Z,49.28
2023-05-21T21:07:18.523Z,49.42
2023-05-21T21:09:46.924Z,49.30
2023-05-21T21:12:25.321Z,49.29
2023-05-21T21:14:54.415Z,49.15
2023-05-21T21:17:22.020Z,49.17
2023-05-21T21:19:49.296Z,48.91
2023-05-21T21:22:17.006Z,49.05
2023-05-21T21:24:44.563Z,48.73
2023-05-21T21:27:12.522Z,48.99
2023-05-21T21:29:39.844Z,48.61
2023-05-21T21:32:07.552Z,48.78
2023-05-21T21:34:35.101Z,48.65
2023-05-21T21:37:02.833Z,48.72
2023-05-21T21:39:30.229Z,48.35
2023-05-21T21:41:58.135Z,48.27
2023-05-21T21:44:25.631Z,48.88
2023-05-21T21:46:52.892Z,48.82
2023-05-21T21:49:20.523Z,48.39
2023-05-21T21:51:48.382Z,48.28
2023-05-21T21:54:15.600Z,48.13
2023-05-21T21:56:42.855Z,48.61
2023-05-21T21:59:10.401Z,48.35
2023-05-21T22:01:37.880Z,48.39
2023-05-21T22:04:05.308Z,48.12
2023-05-21T22:06:33.173Z,48.16
2023-05-21T22:09:00.520Z,48.24
2023-05-21T22:11:28.393Z,48.12
2023-05-21T22:13:56.079Z,48.99
2023-05-21T22:16:24.890Z,49.00
2023-05-21T22:18:54.105Z,48.71
2023-05-21T22:21:26.986Z,49.12
2023-05-21T22:23:54.627Z,48.91
2023-05-21T22:26:23.317Z,49.06
2023-05-21T22:28:51.417Z,49.21
2023-05-21T22:31:19.039Z,48.95
2023-05-21T22:33:46.414Z,48.81
2023-05-21T22:36:13.634Z,48.74
2023-05-21T22:38:41.000Z,48.80
2023-05-21T22:41:08.591Z,49.24
2023-05-21T22:43:36.198Z,49.08
2023-05-21T22:46:03.695Z,49.11
2023-05-21T22:48:31.118Z,49.08
2023-05-21T22:50:58.481Z,48.68
2023-05-21T22:53:26.428Z,48.62
2023-05-21T22:55:53.940Z,48.87
2023-05-21T22:58:21.248Z,49.11
2023-05-21T23:00:48.874Z,48.79
2023-05-21T23:03:16.853Z,49.13
2023-05-21T23:05:44.536Z,48.59
2023-05-21T23:08:12.420Z,48.62
2023-05-21T23:10:41.893Z,48.44
2023-05-21T23:13:09.286Z,48.68
2023-05-21T23:15:38.973Z,48.69
2023-05-21T23:18:07.687Z,48.55
2023-05-21T23:20:35.211Z,48.36
2023-05-21T23:23:02.428Z,48.52
2023-05-21T23:25:29.689Z,48.47
2023-05-21T23:27:56.936Z,48.32
2023-05-21T23:30:24.147Z,48.50
2023-05-21T23:32:51.734Z,48.75
2023-05-21T23:35:19.319Z,48.81
2023-05-21T23:37:46.505Z,48.71
2023-05-21T23:40:13.860Z,48.43
2023-05-21T23:42:41.275Z,48.39
2023-05-21T23:45:08.715Z,48.43
2023-05-21T23:47:36.014Z,48.28
2023-05-21T23:50:03.241Z,48.60
2023-05-21T23:52:30.548Z,48.34
2023-05-21T23:54:57.925Z,48.17
2023-05-21T23:57:25.294Z,48.26
2023-05-21T23:59:52.512Z,48.63
